Chokoloskee, Florida
Current Conditions -  °F | °C
As of 12:53 AM on Sunday 26 Oct 2014 (Local Time) from KAPF Reporting Station
Clear Clear  
Wind Chill: 69°   Ceiling: Unl
Heat Index: 69°   Visibility: 10mi
Dew Point: 60°   Wind: 5mph
Humidity: 73%   Direction: 10°N
Pressure: 29.96"   Gusts: NA
Location:  25.81°N, 81.36°W
Report Text: KAPF 260453Z AUTO 01004KT 10SM CLR 21/16 A2996 RMK AO2 SLP145 T02060156 402830189
Loading
Personal Weather Stations






























Interactive Weather Map
Tropical Storm Tracking
New forecast layout! Learn more

10-Day Weather Forecast

Advertisements
Track Severe Weather on mobile